createdAt,value
2017-04-15T10:33:32.627Z,12.86
2017-04-15T10:34:30.902Z,14.42
2017-04-15T10:35:29.197Z,12.88
2017-04-15T10:36:27.311Z,12.92
2017-04-15T10:37:25.537Z,13.35
2017-04-15T10:38:23.971Z,12.45
2017-04-15T10:39:22.200Z,11.32
2017-04-15T10:40:20.473Z,12.05
2017-04-15T10:41:19.885Z,11.83
2017-04-15T10:42:18.213Z,10.20
2017-04-15T10:43:18.428Z,10.15
2017-04-15T10:44:16.616Z,9.53
2017-04-15T10:46:18.123Z,9.83
2017-04-15T10:47:16.311Z,8.87
2017-04-15T10:48:14.539Z,9.53
2017-04-15T10:49:12.783Z,9.95
2017-04-15T10:50:11.405Z,11.53
2017-04-15T10:51:09.598Z,10.40
2017-04-15T10:52:08.169Z,13.50
2017-04-15T10:53:07.624Z,9.83
2017-04-15T10:54:05.953Z,9.88
2017-04-15T10:55:05.056Z,10.23
2017-04-15T10:56:03.335Z,10.78
2017-04-15T10:57:01.423Z,10.92
2017-04-15T10:57:59.479Z,10.72
2017-04-15T10:58:57.584Z,10.85
2017-04-15T11:00:58.975Z,11.32
2017-04-15T11:01:57.088Z,11.70
2017-04-15T11:02:55.326Z,12.23
2017-04-15T11:03:54.708Z,12.72
2017-04-15T11:04:52.910Z,11.42
2017-04-15T11:05:50.994Z,12.60
2017-04-15T11:06:48.834Z,10.22
2017-04-15T11:07:51.177Z,12.67
2017-04-15T11:08:49.258Z,11.47
2017-04-15T11:09:50.008Z,10.67
2017-04-15T11:10:48.520Z,12.22
2017-04-15T11:11:46.544Z,11.28
2017-04-15T11:15:01.489Z,11.78
2017-04-15T11:16:00.639Z,12.50
2017-04-15T11:16:58.893Z,10.80
2017-04-15T11:17:56.884Z,11.02
2017-04-15T11:18:54.917Z,11.55
2017-04-15T11:19:53.333Z,11.72
2017-04-15T11:20:51.313Z,11.32
2017-04-15T11:21:49.191Z,11.08
2017-04-15T11:22:48.507Z,14.95
2017-04-15T11:23:47.896Z,11.52
2017-04-15T11:24:46.039Z,13.07
2017-04-15T11:25:44.252Z,13.23
2017-04-15T11:26:42.252Z,12.47
2017-04-15T11:27:40.500Z,11.08
2017-04-15T11:28:38.383Z,11.52
2017-04-15T11:29:36.420Z,10.72
2017-04-15T11:30:34.572Z,11.55
2017-04-15T11:32:37.212Z,11.70
2017-04-15T11:33:36.416Z,12.30
2017-04-15T11:34:34.544Z,12.35
2017-04-15T11:35:32.980Z,10.72
2017-04-15T11:36:32.021Z,11.77
2017-04-15T11:37:30.456Z,12.18
2017-04-15T11:38:29.331Z,10.15
2017-04-15T11:40:30.973Z,10.80
2017-04-15T11:41:29.508Z,11.97
2017-04-15T11:42:27.733Z,13.40
2017-04-15T11:43:25.880Z,11.15
2017-04-15T11:44:24.009Z,10.87
2017-04-15T11:45:22.212Z,12.88
2017-04-15T11:46:20.714Z,12.30
2017-04-15T11:47:19.286Z,12.18
2017-04-15T11:48:17.590Z,12.18
2017-04-15T11:50:19.502Z,10.97
2017-04-15T11:51:17.724Z,9.92
2017-04-15T11:53:19.523Z,11.15
2017-04-15T11:54:17.832Z,10.53
2017-04-15T11:55:15.857Z,11.07
2017-04-15T11:56:14.596Z,11.15
2017-04-15T11:57:12.653Z,11.25
2017-04-15T11:58:10.695Z,11.65
2017-04-15T12:00:13.014Z,10.10
2017-04-15T12:01:11.262Z,9.73
2017-04-15T12:02:11.038Z,9.45
2017-04-15T12:03:09.305Z,8.92
2017-04-15T12:04:08.299Z,9.68
2017-04-15T12:05:06.733Z,12.38
2017-04-15T12:06:06.188Z,10.13
2017-04-15T12:08:28.851Z,9.82
2017-04-15T12:09:27.428Z,8.47
2017-04-15T12:10:25.585Z,9.65
2017-04-15T12:11:25.362Z,9.60
2017-04-15T12:12:23.656Z,10.92
2017-04-15T12:13:21.825Z,10.40
2017-04-15T12:14:19.942Z,10.28
2017-04-15T12:15:18.280Z,10.77
2017-04-15T12:16:16.616Z,9.97
2017-04-15T12:18:25.346Z,11.05
2017-04-15T12:19:27.171Z,10.70
2017-04-15T12:20:25.283Z,10.40
2017-04-15T12:21:23.305Z,9.40
2017-04-15T12:22:21.533Z,9.90
2017-04-15T12:23:19.761Z,11.05
2017-04-15T12:24:17.989Z,10.78
2017-04-15T12:25:16.219Z,9.30
2017-04-15T12:26:14.351Z,8.63
2017-04-15T12:27:12.549Z,9.52
2017-04-15T12:28:10.696Z,9.47
2017-04-15T12:29:11.402Z,8.53
2017-04-15T12:30:09.610Z,9.37
2017-04-15T12:31:07.838Z,10.68
2017-04-15T12:32:05.919Z,9.62
2017-04-15T12:33:03.986Z,9.23
2017-04-15T12:34:02.520Z,9.22
2017-04-15T12:35:00.545Z,9.03
2017-04-15T12:36:01.889Z,11.17
2017-04-15T12:36:59.967Z,9.67
2017-04-15T12:37:58.094Z,9.55
2017-04-15T12:38:56.261Z,9.35
2017-04-15T12:39:54.251Z,10.43
2017-04-15T12:40:52.471Z,9.17
2017-04-15T12:41:50.597Z,9.47
2017-04-15T12:42:48.722Z,10.38
2017-04-15T12:43:47.054Z,11.03
2017-04-15T12:44:45.893Z,9.53
2017-04-15T12:45:44.327Z,8.87
2017-04-15T12:46:42.423Z,9.27
2017-04-15T12:47:40.782Z,10.08
2017-04-15T12:48:38.705Z,8.45
2017-04-15T12:49:36.695Z,10.48
2017-04-15T12:50:34.854Z,9.28
2017-04-15T12:51:33.081Z,9.55
2017-04-15T12:52:31.053Z,9.20
2017-04-15T12:53:29.538Z,8.77
2017-04-15T12:54:27.666Z,9.92
2017-04-15T12:55:25.757Z,9.32
2017-04-15T12:56:24.222Z,8.85
2017-04-15T12:57:22.245Z,8.87
2017-04-15T12:58:20.476Z,9.68
2017-04-15T12:59:18.496Z,9.45
2017-04-15T13:00:16.624Z,9.23
2017-04-15T13:01:15.039Z,8.87
2017-04-15T13:02:13.011Z,9.00
2017-04-15T13:03:11.204Z,8.88
2017-04-15T13:04:09.399Z,9.33
2017-04-15T13:05:07.437Z,11.60
2017-04-15T13:06:05.478Z,9.17
2017-04-15T13:07:03.673Z,8.98
2017-04-15T13:08:01.662Z,7.82
2017-04-15T13:08:59.855Z,7.75
2017-04-15T13:09:58.086Z,8.55
2017-04-15T13:12:01.601Z,8.95
2017-04-15T13:13:00.748Z,8.98
2017-04-15T13:13:59.900Z,9.32
2017-04-15T13:14:58.128Z,9.28
2017-04-15T13:15:56.458Z,9.12
2017-04-15T13:16:54.584Z,10.58
2017-04-15T13:17:52.709Z,8.95
2017-04-15T13:19:56.124Z,10.48
2017-04-15T13:20:54.236Z,11.65
2017-04-15T13:21:52.231Z,9.88
2017-04-15T13:22:50.400Z,9.68
2017-04-15T13:23:48.626Z,9.83
2017-04-15T13:24:46.958Z,8.87
2017-04-15T13:25:45.288Z,9.53
2017-04-15T13:26:43.500Z,10.40
2017-04-15T13:27:41.694Z,9.32
2017-04-15T13:28:40.053Z,9.47
2017-04-15T13:29:38.286Z,11.52
2017-04-15T13:30:36.325Z,8.55
2017-04-15T13:31:34.553Z,9.47
2017-04-15T13:32:32.679Z,9.10
2017-04-15T13:33:30.600Z,9.30
2017-04-15T13:34:28.725Z,9.72
2017-04-15T13:35:26.954Z,10.35
2017-04-15T13:36:25.181Z,10.18
2017-04-15T13:37:23.513Z,8.88
2017-04-15T13:38:21.740Z,8.75
2017-04-15T13:39:19.968Z,9.42
2017-04-15T13:40:18.197Z,9.90
2017-04-15T13:41:16.915Z,8.97
2017-04-15T13:42:14.906Z,8.23
2017-04-15T13:43:13.188Z,8.43
2017-04-15T13:44:11.496Z,9.62
2017-04-15T13:45:10.462Z,9.17
2017-04-15T13:46:08.588Z,8.27
2017-04-15T13:47:06.588Z,9.95
2017-04-15T13:48:04.578Z,8.52
2017-04-15T13:49:02.864Z,8.38
2017-04-15T13:50:01.194Z,9.20
2017-04-15T13:50:59.626Z,9.28
2017-04-15T13:51:57.546Z,7.83
2017-04-15T13:52:55.773Z,9.65
2017-04-15T13:53:53.901Z,10.43
2017-04-15T13:54:55.733Z,10.10
2017-04-15T13:55:53.916Z,9.98
2017-04-15T13:56:51.901Z,11.92
2017-04-15T13:57:49.834Z,9.72
2017-04-15T13:58:47.877Z,9.67
2017-04-15T13:59:45.799Z,11.20
2017-04-15T14:00:43.954Z,9.88
2017-04-15T14:01:42.051Z,10.42
2017-04-15T14:02:40.205Z,9.97
2017-04-15T14:03:40.787Z,9.63
2017-04-15T14:04:40.857Z,8.85
2017-04-15T14:06:48.672Z,9.07
2017-04-15T14:07:47.473Z,9.25
2017-04-15T14:08:46.560Z,9.62
2017-04-15T14:09:44.884Z,9.83
2017-04-15T14:13:23.341Z,8.55
2017-04-15T14:14:21.507Z,9.52
2017-04-15T14:15:19.728Z,8.52
2017-04-15T14:17:22.838Z,9.22
2017-04-15T14:18:21.063Z,8.87
2017-04-15T14:20:23.760Z,11.50
2017-04-15T14:21:21.784Z,11.13
2017-04-15T14:22:19.807Z,9.75
2017-04-15T14:23:19.572Z,11.38
2017-04-15T14:24:17.585Z,9.50
2017-04-15T14:25:16.027Z,9.62
2017-04-15T14:26:14.358Z,8.80
2017-04-15T14:27:12.895Z,8.82
2017-04-15T14:28:11.017Z,9.15
2017-04-15T14:29:09.049Z,8.98
2017-04-15T14:30:07.268Z,9.28
2017-04-15T14:31:05.682Z,9.85
2017-04-15T14:32:04.032Z,10.30
2017-04-15T14:33:02.158Z,9.78
2017-04-15T14:34:00.385Z,8.57
2017-04-15T14:34:58.618Z,9.55
2017-04-15T14:35:56.740Z,9.13
2017-04-15T14:36:54.974Z,10.68
2017-04-15T14:37:53.197Z,8.30
2017-04-15T14:38:51.423Z,9.45
2017-04-15T14:39:49.473Z,9.10
2017-04-15T14:40:47.793Z,7.82
2017-04-15T14:41:45.904Z,8.00
2017-04-15T14:42:44.197Z,9.17
2017-04-15T14:43:43.104Z,8.70
2017-04-15T14:44:41.444Z,8.78
2017-04-15T14:45:39.697Z,8.72
2017-04-15T14:46:38.184Z,8.92
2017-04-15T14:47:36.390Z,8.78
2017-04-15T14:48:34.627Z,7.83
2017-04-15T14:49:33.365Z,8.62
2017-04-15T14:50:31.703Z,8.37
2017-04-15T14:51:30.767Z,8.22
2017-04-15T14:52:29.108Z,9.68
2017-04-15T14:53:27.332Z,9.00
2017-04-15T14:54:25.424Z,8.05
2017-04-15T14:55:23.872Z,9.20
2017-04-15T14:56:22.119Z,7.68
2017-04-15T14:57:20.213Z,7.88
2017-04-15T14:58:19.169Z,7.85
2017-04-15T14:59:17.363Z,7.92
2017-04-15T15:00:15.534Z,8.55
2017-04-15T15:01:14.047Z,8.92
2017-04-15T15:02:12.045Z,8.63
2017-04-15T15:03:10.400Z,7.78
2017-04-15T15:04:08.423Z,7.77
2017-04-15T15:05:06.560Z,9.08
2017-04-15T15:06:04.674Z,8.32
2017-04-15T15:07:02.902Z,9.12
2017-04-15T15:08:01.132Z,8.20
2017-04-15T15:08:59.247Z,8.47
2017-04-15T15:10:02.506Z,7.90
2017-04-15T15:11:00.726Z,8.73
2017-04-15T15:11:58.852Z,8.62
2017-04-15T15:12:57.079Z,9.80
2017-04-15T15:13:55.103Z,8.30
2017-04-15T15:14:53.332Z,7.93
2017-04-15T15:15:53.302Z,7.82
2017-04-15T15:16:51.426Z,8.60
2017-04-15T15:17:49.757Z,8.95
2017-04-15T15:18:48.394Z,8.57
2017-04-15T15:19:51.795Z,8.23
2017-04-15T15:20:49.862Z,9.13
2017-04-15T15:21:48.089Z,6.23
2017-04-15T15:22:46.381Z,6.23
2017-04-15T15:23:44.444Z,6.78
2017-04-15T15:24:43.181Z,6.13
2017-04-15T15:25:43.625Z,6.13
2017-04-15T15:26:42.095Z,6.30
2017-04-15T15:27:41.326Z,5.98
2017-04-15T15:28:39.372Z,5.82
2017-04-15T15:29:38.747Z,8.88
2017-04-15T15:30:36.850Z,6.28
2017-04-15T15:31:39.209Z,6.63
2017-04-15T15:32:39.267Z,6.50
2017-04-15T15:33:37.572Z,5.37
2017-04-15T15:34:35.957Z,5.78
2017-04-15T15:35:34.129Z,6.67
2017-04-15T15:36:32.754Z,7.12
2017-04-15T15:37:31.815Z,10.22
2017-04-15T15:38:30.042Z,13.28
2017-04-15T15:39:28.056Z,16.88
2017-04-15T15:40:26.601Z,13.83
2017-04-15T15:41:24.726Z,8.23
2017-04-15T15:42:22.956Z,8.45
2017-04-15T15:43:21.081Z,7.37
2017-04-15T15:44:19.207Z,7.08
2017-04-15T15:45:17.332Z,7.17
2017-04-15T15:46:15.519Z,7.75
2017-04-15T15:47:14.403Z,8.10
2017-04-15T15:48:13.119Z,8.37
2017-04-15T15:49:11.269Z,7.83
2017-04-15T15:50:09.392Z,7.27
2017-04-15T15:51:08.031Z,7.18
2017-04-15T15:52:05.951Z,7.83
2017-04-15T15:53:04.078Z,7.18
2017-04-15T15:54:02.100Z,6.77
2017-04-15T15:55:00.126Z,7.30
2017-04-15T15:55:58.147Z,6.47
2017-04-15T15:56:56.376Z,6.30
2017-04-15T15:57:54.491Z,7.37
2017-04-15T15:58:52.626Z,6.72
2017-04-15T15:59:50.630Z,7.20
2017-04-15T16:00:48.557Z,6.00
2017-04-15T16:01:46.681Z,7.48
2017-04-15T16:02:44.711Z,7.55
2017-04-15T16:03:42.640Z,7.02
2017-04-15T16:04:40.881Z,7.45
2017-04-15T16:05:39.667Z,6.95
2017-04-15T16:06:37.508Z,6.05
2017-04-15T16:07:35.450Z,6.40
2017-04-15T16:08:33.485Z,6.20
2017-04-15T16:09:31.431Z,6.53
2017-04-15T16:10:29.391Z,6.32
2017-04-15T16:11:27.419Z,7.10
2017-04-15T16:12:25.358Z,6.70
2017-04-15T16:14:26.743Z,7.12
2017-04-15T16:15:24.579Z,8.57
2017-04-15T16:16:22.675Z,7.38
2017-04-15T16:18:24.496Z,6.92
2017-04-15T16:19:22.888Z,7.72
2017-04-15T16:20:20.962Z,7.65
2017-04-15T16:21:18.954Z,6.65
2017-04-15T16:22:16.956Z,7.22
2017-04-15T16:23:14.858Z,7.48
2017-04-15T16:25:19.090Z,7.10
2017-04-15T16:26:17.032Z,6.87
2017-04-15T16:27:15.081Z,7.22
2017-04-15T16:28:13.157Z,7.37
2017-04-15T16:29:11.170Z,7.37
2017-04-15T16:30:10.034Z,7.00
2017-04-15T16:31:08.068Z,7.93
2017-04-15T16:32:06.164Z,7.68
2017-04-15T16:33:04.038Z,8.65
2017-04-15T16:34:01.926Z,7.32
2017-04-15T16:34:59.812Z,8.05
2017-04-15T16:35:57.778Z,7.65
2017-04-15T16:36:55.697Z,8.72
2017-04-15T16:38:57.281Z,10.10
2017-04-15T16:39:55.457Z,10.83
2017-04-15T16:40:53.559Z,16.30
2017-04-15T16:42:55.029Z,25.55
2017-04-15T16:43:53.054Z,24.97
2017-04-15T16:44:50.969Z,21.80
2017-04-15T16:45:48.982Z,22.32
2017-04-15T16:46:47.533Z,19.75
2017-04-15T16:47:45.647Z,15.40
2017-04-15T16:48:49.462Z,16.23
2017-04-15T16:49:47.490Z,16.72
2017-04-15T16:50:46.072Z,14.32
2017-04-15T16:52:48.831Z,11.73
2017-04-15T16:54:50.060Z,9.67
2017-04-15T16:56:56.406Z,11.25
2017-04-15T17:00:07.623Z,7.53
2017-04-15T17:04:16.225Z,8.43
2017-04-15T17:05:14.030Z,8.80
2017-04-15T17:06:11.866Z,10.07
2017-04-15T17:08:13.213Z,13.82
2017-04-15T17:09:11.478Z,9.62
2017-04-15T17:13:14.280Z,10.38
2017-04-15T17:15:15.973Z,12.18
2017-04-15T17:16:14.162Z,11.05
2017-04-15T17:17:12.104Z,11.63
2017-04-15T17:18:09.874Z,9.67
2017-04-15T17:19:07.650Z,9.58
2017-04-15T17:20:05.481Z,10.38
2017-04-15T17:21:03.391Z,10.28
2017-04-15T17:23:04.715Z,9.75
2017-04-15T17:24:02.555Z,11.80
2017-04-15T17:26:03.626Z,11.10
2017-04-15T17:27:01.452Z,10.45
2017-04-15T17:30:01.722Z,12.45
2017-04-15T17:30:59.645Z,9.77
2017-04-15T17:31:57.606Z,9.30
2017-04-15T17:32:56.694Z,11.28
2017-04-15T17:34:59.878Z,12.75
2017-04-15T17:35:57.952Z,12.92
2017-04-15T17:36:57.284Z,11.85
2017-04-15T17:37:55.602Z,12.02
2017-04-15T17:38:54.370Z,18.82
2017-04-15T17:39:55.493Z,20.82
2017-04-15T17:42:11.151Z,17.88
2017-04-15T17:43:10.086Z,14.33
2017-04-15T17:45:14.526Z,14.58
2017-04-15T17:46:12.419Z,12.37
2017-04-15T17:47:10.714Z,11.65
2017-04-15T17:48:09.420Z,10.70
2017-04-15T17:49:08.824Z,12.37
2017-04-15T17:50:06.804Z,11.38
2017-04-15T17:51:05.537Z,13.67
2017-04-15T17:52:04.351Z,15.03
2017-04-15T17:53:02.870Z,13.23
2017-04-15T17:54:01.135Z,16.55
2017-04-15T17:55:00.167Z,15.53
2017-04-15T17:55:58.960Z,13.92
2017-04-15T17:56:58.509Z,12.55
2017-04-15T17:57:57.132Z,15.38
2017-04-15T17:58:55.161Z,14.12
2017-04-15T17:59:53.254Z,13.83
2017-04-15T18:00:53.395Z,13.42
2017-04-15T18:01:52.130Z,15.27
2017-04-15T18:02:51.015Z,13.83
2017-04-15T18:03:49.484Z,14.63
2017-04-15T18:04:47.916Z,17.85
2017-04-15T18:05:46.916Z,14.12
2017-04-15T18:06:45.197Z,12.32
2017-04-15T18:07:43.750Z,12.90
2017-04-15T18:08:41.815Z,13.95
2017-04-15T18:09:39.648Z,11.57
2017-04-15T18:10:38.053Z,12.00
2017-04-15T18:11:36.267Z,10.48
2017-04-15T18:12:35.129Z,11.27
2017-04-15T18:13:33.575Z,11.25
2017-04-15T18:14:32.207Z,9.97
2017-04-15T18:15:30.619Z,10.95
2017-04-15T18:16:29.312Z,11.00
2017-04-15T18:17:28.009Z,10.22
2017-04-15T18:18:26.303Z,10.77
2017-04-15T18:19:24.224Z,10.42
2017-04-15T18:20:22.999Z,10.53
2017-04-15T18:21:21.320Z,9.77
2017-04-15T18:22:20.204Z,10.58
2017-04-15T18:23:18.223Z,11.00
2017-04-15T18:24:16.300Z,13.13
2017-04-15T18:25:19.181Z,15.10
2017-04-15T18:26:18.174Z,13.92
2017-04-15T18:27:16.361Z,12.98
2017-04-15T18:28:14.462Z,11.53
2017-04-15T18:29:13.089Z,10.22
2017-04-15T18:30:11.308Z,11.42
2017-04-15T18:31:09.982Z,11.20
2017-04-15T18:32:08.032Z,12.67
2017-04-15T18:33:05.955Z,10.53
2017-04-15T18:34:03.822Z,11.12
2017-04-15T18:35:01.726Z,11.15
2017-04-15T18:36:01.158Z,11.60
2017-04-15T18:36:59.143Z,14.88
2017-04-15T18:37:57.019Z,12.45
2017-04-15T18:38:55.528Z,10.13
2017-04-15T18:39:53.398Z,11.77
2017-04-15T18:40:52.072Z,12.03
2017-04-15T18:41:49.980Z,11.63
2017-04-15T18:42:48.614Z,12.55
2017-04-15T18:43:47.425Z,11.92
2017-04-15T18:44:45.488Z,14.48
2017-04-15T18:45:43.407Z,13.43
2017-04-15T18:46:41.702Z,15.57
2017-04-15T18:47:40.506Z,19.22
2017-04-15T18:48:38.573Z,16.28
2017-04-15T18:49:36.886Z,16.67
2017-04-15T18:50:34.900Z,14.80
2017-04-15T18:51:32.834Z,15.88
2017-04-15T18:52:31.466Z,16.35
2017-04-15T18:53:30.277Z,16.42
2017-04-15T18:54:28.224Z,14.30
2017-04-15T18:55:26.049Z,15.22
2017-04-15T18:56:23.958Z,13.93
2017-04-15T18:57:23.598Z,14.52
2017-04-15T18:58:22.098Z,16.52
2017-04-15T18:59:20.087Z,15.10
2017-04-15T19:00:19.511Z,18.00
2017-04-15T19:01:17.380Z,17.47
2017-04-15T19:02:15.813Z,14.50
2017-04-15T19:03:14.237Z,15.22
2017-04-15T19:04:14.463Z,15.07
2017-04-15T19:05:12.415Z,16.00
2017-04-15T19:06:10.202Z,18.73
2017-04-15T19:07:08.031Z,17.03
2017-04-15T19:08:05.817Z,16.58
2017-04-15T19:09:03.713Z,15.08
2017-04-15T19:10:08.494Z,17.10
2017-04-15T19:11:06.968Z,19.03
2017-04-15T19:12:04.901Z,17.60
2017-04-15T19:13:02.706Z,15.33
2017-04-15T19:14:00.495Z,18.22
2017-04-15T19:14:58.516Z,18.28
2017-04-15T19:15:56.719Z,15.27
2017-04-15T19:16:55.370Z,12.82
2017-04-15T19:17:53.807Z,18.47
2017-04-15T19:18:51.686Z,17.48
2017-04-15T19:19:49.479Z,15.00
2017-04-15T19:20:47.267Z,18.73
2017-04-15T19:21:45.055Z,14.73
2017-04-15T19:22:46.066Z,14.28
2017-04-15T19:23:43.844Z,15.20
2017-04-15T19:24:41.624Z,15.52
2017-04-15T19:25:40.209Z,19.83
2017-04-15T19:26:37.998Z,17.77
2017-04-15T19:27:35.859Z,16.77
2017-04-15T19:28:33.650Z,17.48
2017-04-15T19:29:31.433Z,17.80
2017-04-15T19:30:29.249Z,17.12
2017-04-15T19:31:27.033Z,19.88
2017-04-15T19:32:24.845Z,18.42
2017-04-15T19:33:22.661Z,17.02
2017-04-15T19:34:20.447Z,19.65
2017-04-15T19:35:18.246Z,21.32
2017-04-15T19:36:20.148Z,25.10
2017-04-15T19:37:40.700Z,23.18
2017-04-15T19:38:39.985Z,22.68
2017-04-15T19:39:37.782Z,27.47
2017-04-15T19:40:36.208Z,24.77
2017-04-15T19:41:33.994Z,29.97
2017-04-15T19:42:31.803Z,24.73
2017-04-15T19:43:29.600Z,23.57
2017-04-15T19:44:28.156Z,29.07
2017-04-15T19:45:30.115Z,25.52
2017-04-15T19:46:27.997Z,27.00
2017-04-15T19:47:25.819Z,26.83
2017-04-15T19:49:28.545Z,29.60
2017-04-15T19:50:26.361Z,29.15
2017-04-15T19:51:24.183Z,28.62
2017-04-15T19:52:22.041Z,28.48
2017-04-15T19:53:19.891Z,27.58
2017-04-15T19:54:17.708Z,27.37
2017-04-15T19:55:15.584Z,25.72
2017-04-15T19:56:13.454Z,25.02
2017-04-15T19:57:11.259Z,28.52
2017-04-15T19:58:09.177Z,25.50
2017-04-15T19:59:06.966Z,26.97
2017-04-15T20:00:04.814Z,25.37
2017-04-15T20:01:02.651Z,25.17
2017-04-15T20:02:00.966Z,29.27
2017-04-15T20:02:58.771Z,27.50
2017-04-15T20:03:56.594Z,26.55
2017-04-15T20:04:54.384Z,26.95
2017-04-15T20:05:52.261Z,25.07
2017-04-15T20:06:50.102Z,25.52
2017-04-15T20:07:47.908Z,23.75
2017-04-15T20:08:46.324Z,23.92
2017-04-15T20:09:44.684Z,24.40
2017-04-15T20:11:45.934Z,26.15
2017-04-15T20:12:43.766Z,25.75
2017-04-15T20:13:41.583Z,26.43
2017-04-15T20:14:39.373Z,24.27
2017-04-15T20:16:40.607Z,25.77
2017-04-15T20:17:38.431Z,27.83
2017-04-15T20:18:36.786Z,23.63
2017-04-15T20:19:34.626Z,27.23
2017-04-15T20:20:32.454Z,27.57
2017-04-15T20:21:30.350Z,25.15
2017-04-15T20:22:28.213Z,25.95
2017-04-15T20:23:25.998Z,24.27
2017-04-15T20:24:23.850Z,27.37
2017-04-15T20:25:21.668Z,24.43
2017-04-15T20:26:19.532Z,25.13
2017-04-15T20:27:17.322Z,26.48
2017-04-15T20:28:15.111Z,26.30
2017-04-15T20:29:12.894Z,30.53
2017-04-15T20:30:11.345Z,25.90
2017-04-15T20:31:09.942Z,26.75
2017-04-15T20:32:08.410Z,24.98
2017-04-15T20:33:06.761Z,25.13
2017-04-15T20:34:04.565Z,23.73
2017-04-15T20:35:02.483Z,24.78
2017-04-15T20:36:00.321Z,27.25
2017-04-15T20:36:58.117Z,28.83
2017-04-15T20:37:55.909Z,26.83
2017-04-15T20:38:53.697Z,25.67
2017-04-15T20:39:51.489Z,24.47
2017-04-15T20:40:49.989Z,28.48
2017-04-15T20:41:48.506Z,27.57
2017-04-15T20:42:46.294Z,27.87
2017-04-15T20:43:44.086Z,26.12
2017-04-15T20:44:42.422Z,26.03
2017-04-15T20:45:40.228Z,27.55
2017-04-15T20:46:38.070Z,29.62
2017-04-15T20:47:36.031Z,27.70
2017-04-15T20:48:34.541Z,27.35
2017-04-15T20:49:32.371Z,30.30
2017-04-15T20:51:33.431Z,26.48
2017-04-15T20:52:31.251Z,25.07
2017-04-15T20:53:29.093Z,25.55
2017-04-15T20:55:30.169Z,26.03
2017-04-15T20:56:27.978Z,26.83
2017-04-15T20:57:26.361Z,26.95
2017-04-15T20:58:24.178Z,30.72
2017-04-15T20:59:21.999Z,23.72
2017-04-15T21:00:19.790Z,25.92
2017-04-15T21:01:18.291Z,23.80
2017-04-15T21:02:16.227Z,26.05
2017-04-15T21:03:14.038Z,25.10
2017-04-15T21:04:11.853Z,25.28
2017-04-15T21:05:09.678Z,30.27
2017-04-15T21:06:07.540Z,25.13
2017-04-15T21:07:05.335Z,24.32
2017-04-15T21:08:03.133Z,23.87
2017-04-15T21:09:00.946Z,26.33
2017-04-15T21:09:58.738Z,25.60
2017-04-15T21:10:56.597Z,26.75
2017-04-15T21:12:58.197Z,26.93
2017-04-15T21:13:56.070Z,26.83
2017-04-15T21:14:53.891Z,27.05
2017-04-15T21:15:52.329Z,28.88
2017-04-15T21:16:50.217Z,26.13
2017-04-15T21:18:51.672Z,26.57
2017-04-15T21:19:49.766Z,27.78
2017-04-15T21:20:47.610Z,27.65
2017-04-15T21:21:45.405Z,29.83
2017-04-15T21:22:43.295Z,25.58
2017-04-15T21:23:41.114Z,26.87
2017-04-15T21:24:39.867Z,26.27
2017-04-15T21:25:40.579Z,25.78
2017-04-15T21:27:42.659Z,25.30
2017-04-15T21:28:40.721Z,26.57
2017-04-15T21:29:39.209Z,26.10
2017-04-15T21:30:37.065Z,25.78
2017-04-15T21:31:34.895Z,25.33
2017-04-15T21:32:32.805Z,25.77
2017-04-15T21:33:30.601Z,27.25
2017-04-15T21:34:28.426Z,23.73
2017-04-15T21:35:26.588Z,23.70
2017-04-15T21:36:24.634Z,21.55
2017-04-15T21:37:22.529Z,37.20
2017-04-15T21:38:21.556Z,23.75
2017-04-15T21:39:19.355Z,23.90
2017-04-15T21:40:17.498Z,23.78
2017-04-15T21:41:15.389Z,22.08
2017-04-15T21:42:13.806Z,22.20
2017-04-15T21:43:11.595Z,20.67
2017-04-15T21:44:09.416Z,23.13
2017-04-15T21:45:08.172Z,22.02
2017-04-15T21:46:06.166Z,26.47
2017-04-15T21:47:03.986Z,23.37
2017-04-15T21:48:02.677Z,22.87
2017-04-15T21:49:00.484Z,21.60
2017-04-15T21:49:58.349Z,22.05
2017-04-15T21:50:58.404Z,23.60
2017-04-15T21:51:56.334Z,21.27
2017-04-15T21:52:54.359Z,20.58
2017-04-15T21:53:52.246Z,20.53
2017-04-15T21:54:50.055Z,23.57
2017-04-15T21:55:48.438Z,23.72
2017-04-15T21:56:46.339Z,23.58
2017-04-15T21:57:44.258Z,22.37
2017-04-15T21:58:42.083Z,27.77
2017-04-15T21:59:39.965Z,28.87
2017-04-15T22:00:37.752Z,22.73
2017-04-15T22:01:35.556Z,28.57
2017-04-15T22:02:33.348Z,27.43
2017-04-15T22:03:31.182Z,28.85
2017-04-15T22:04:29.084Z,26.10
2017-04-15T22:05:26.884Z,27.28
2017-04-15T22:06:24.752Z,29.43
2017-04-15T22:07:22.544Z,29.52
2017-04-15T22:08:20.993Z,30.25
2017-04-15T22:09:18.874Z,28.05
2017-04-15T22:10:16.709Z,28.13
2017-04-15T22:11:14.868Z,30.58
2017-04-15T22:12:17.722Z,25.47
2017-04-15T22:13:19.642Z,26.97
2017-04-15T22:14:19.429Z,27.20
2017-04-15T22:15:18.133Z,23.32
2017-04-15T22:16:17.554Z,29.18
2017-04-15T22:17:17.384Z,23.57
2017-04-15T22:18:15.985Z,25.87
2017-04-15T22:20:26.124Z,24.45
2017-04-15T22:21:26.128Z,20.90
2017-04-15T22:22:24.717Z,24.92
2017-04-15T22:23:22.877Z,20.20
2017-04-15T22:24:25.804Z,20.92
2017-04-15T22:25:30.886Z,20.90
2017-04-15T22:26:34.839Z,22.72
2017-04-15T22:28:42.343Z,21.58
2017-04-15T22:29:45.620Z,23.33
2017-04-15T22:30:50.878Z,22.23
2017-04-15T22:31:54.464Z,23.50
2017-04-15T22:32:56.476Z,19.35
2017-04-15T22:33:54.702Z,21.70
2017-04-15T22:34:57.798Z,22.00
2017-04-15T22:35:57.275Z,21.62
2017-04-15T22:38:00.109Z,26.02
2017-04-15T22:39:04.695Z,24.75
2017-04-15T22:40:04.401Z,25.70
2017-04-15T22:41:03.940Z,23.98
2017-04-15T22:42:01.768Z,22.92
2017-04-15T22:42:59.696Z,25.50
2017-04-15T22:43:58.130Z,28.62
2017-04-15T22:45:00.938Z,25.52
2017-04-15T22:46:02.144Z,25.03
2017-04-15T22:46:59.986Z,26.27
2017-04-15T22:47:58.468Z,23.32
2017-04-15T22:50:00.217Z,23.20
2017-04-15T22:50:58.212Z,23.38
2017-04-15T22:51:56.038Z,23.92
2017-04-15T22:52:56.144Z,33.25
2017-04-15T22:53:54.933Z,23.68
2017-04-15T22:54:53.861Z,23.58
2017-04-15T22:55:51.667Z,22.77
2017-04-15T22:56:49.482Z,23.47
2017-04-15T22:57:47.386Z,22.00
2017-04-15T22:58:45.206Z,23.82
2017-04-15T23:00:46.556Z,27.45
2017-04-15T23:01:45.585Z,24.12
2017-04-15T23:03:47.562Z,22.42
2017-04-15T23:04:45.347Z,22.15
2017-04-15T23:05:43.134Z,26.05
2017-04-15T23:06:40.946Z,23.82
2017-04-15T23:07:40.894Z,22.55
2017-04-15T23:08:39.195Z,26.22
2017-04-15T23:09:37.181Z,24.45
2017-04-15T23:10:34.997Z,24.57
2017-04-15T23:11:32.793Z,21.68
2017-04-15T23:12:30.582Z,25.42
2017-04-15T23:13:28.366Z,22.30
2017-04-15T23:14:26.201Z,23.60
2017-04-15T23:15:24.066Z,27.53
2017-04-15T23:16:25.967Z,23.20
2017-04-15T23:17:25.182Z,26.45
2017-04-15T23:18:22.967Z,22.18
2017-04-15T23:19:20.778Z,31.17
2017-04-15T23:20:18.585Z,21.80
2017-04-15T23:21:16.372Z,22.27
2017-04-15T23:22:14.993Z,22.90
2017-04-15T23:24:17.558Z,24.05
2017-04-15T23:25:15.337Z,22.17
2017-04-15T23:26:13.200Z,26.47
2017-04-15T23:27:11.562Z,22.83
2017-04-15T23:28:09.612Z,26.05
2017-04-15T23:29:07.422Z,23.82
2017-04-15T23:30:05.225Z,24.35
2017-04-15T23:31:03.038Z,30.40
2017-04-15T23:32:00.920Z,24.00
2017-04-15T23:32:58.707Z,23.27
2017-04-15T23:33:57.109Z,24.20
2017-04-15T23:34:55.496Z,26.67
2017-04-15T23:35:53.328Z,24.05
2017-04-15T23:36:51.119Z,28.25
2017-04-15T23:37:49.643Z,29.15
2017-04-15T23:38:47.562Z,30.97
2017-04-15T23:39:45.915Z,26.53
2017-04-15T23:40:44.309Z,30.67
2017-04-15T23:41:42.115Z,27.12
2017-04-15T23:42:39.938Z,28.50
2017-04-15T23:43:37.736Z,26.18
2017-04-15T23:44:36.200Z,27.67
2017-04-15T23:45:34.102Z,28.68
2017-04-15T23:47:35.887Z,24.73
2017-04-15T23:48:33.670Z,26.38
2017-04-15T23:49:31.450Z,26.78
2017-04-15T23:50:29.260Z,27.90
2017-04-15T23:51:27.674Z,27.92
2017-04-15T23:52:25.542Z,27.45
2017-04-15T23:53:23.462Z,29.57
2017-04-15T23:54:21.251Z,28.87
2017-04-15T23:55:19.709Z,29.77
2017-04-15T23:56:17.608Z,26.08
2017-04-15T23:57:15.983Z,27.65
2017-04-15T23:58:13.891Z,24.80
2017-04-15T23:59:11.745Z,27.43
